Time;durP1;ratioP1;P1;durP2;ratioP2;P2;SDS_P1;SDS_P2;PMS_P1;PMS_P2;Temp;Humidity;BMP_temperature;BMP_pressure;BME280_temperature;BME280_humidity;BME280_pressure;Samples;Min_cycle;Max_cycle;Signal;HPM_P1;HPM_P2
2022/12/28 00:01:46;;;;;;;0.45;0.40;;;17.80;47.20;;;;;;4951739;28;20169;-85
2022/12/28 00:04:18;;;;;;;1.25;0.52;;;17.80;47.30;;;;;;4951709;28;20249;-85
2022/12/28 00:06:49;;;;;;;1.02;0.45;;;17.80;47.20;;;;;;4983579;28;20223;-84
2022/12/28 00:09:28;;;;;;;0.60;0.30;;;17.90;47.20;;;;;;4952104;28;20168;-86
2022/12/28 00:11:55;;;;;;;1.65;0.57;;;17.80;47.20;;;;;;4982994;28;20160;-85
2022/12/28 00:14:25;;;;;;;0.80;0.55;;;17.80;47.20;;;;;;4967596;28;20260;-85
2022/12/28 00:16:59;;;;;;;0.52;0.45;;;17.80;47.20;;;;;;4967596;28;20164;-85
2022/12/28 00:19:25;;;;;;;0.50;0.50;;;17.80;47.20;;;;;;4967155;28;20203;-84
2022/12/28 00:21:52;;;;;;;1.65;0.40;;;17.80;47.20;;;;;;4951806;28;20168;-84
2022/12/28 00:24:23;;;;;;;0.50;0.40;;;17.80;47.30;;;;;;4951826;28;20199;-85
2022/12/28 00:26:52;;;;;;;0.70;0.47;;;17.70;47.30;;;;;;4967563;28;20179;-85
2022/12/28 00:29:20;;;;;;;0.90;0.50;;;17.80;47.40;;;;;;4967848;28;20172;-85
2022/12/28 00:31:45;;;;;;;0.60;0.50;;;17.70;47.40;;;;;;4951812;28;20238;-85
2022/12/28 00:34:11;;;;;;;1.23;0.47;;;17.80;47.40;;;;;;4967301;28;20180;-85
2022/12/28 00:36:37;;;;;;;0.75;0.40;;;17.80;47.50;;;;;;4966791;28;20168;-84
2022/12/28 00:39:03;;;;;;;1.85;0.50;;;17.70;47.40;;;;;;4967141;28;20225;-85
2022/12/28 00:41:28;;;;;;;0.85;0.52;;;17.70;47.50;;;;;;4951957;28;20167;-85
2022/12/28 00:44:02;;;;;;;1.23;0.40;;;17.70;47.60;;;;;;4966767;28;20156;-85
2022/12/28 00:46:31;;;;;;;2.30;0.60;;;17.70;47.60;;;;;;4983046;28;20156;-85
2022/12/28 00:48:57;;;;;;;0.85;0.40;;;17.70;47.50;;;;;;4983620;28;20160;-85
2022/12/28 00:51:23;;;;;;;1.15;0.55;;;17.70;47.60;;;;;;4983990;28;20159;-85
2022/12/28 00:53:49;;;;;;;1.13;0.50;;;17.60;47.60;;;;;;4952191;28;20176;-84
2022/12/28 00:56:17;;;;;;;1.77;0.40;;;17.70;47.60;;;;;;4951944;28;20171;-85
2022/12/28 00:58:47;;;;;;;0.85;0.40;;;17.60;47.60;;;;;;4952551;28;20279;-85
2022/12/28 01:01:16;;;;;;;1.65;0.52;;;17.70;47.60;;;;;;4983675;28;20163;-85
2022/12/28 01:03:45;;;;;;;1.05;0.50;;;17.60;47.60;;;;;;4952132;28;20199;-84
2022/12/28 01:06:12;;;;;;;0.47;0.40;;;17.60;47.60;;;;;;4967178;28;20227;-85
2022/12/28 01:08:41;;;;;;;0.45;0.40;;;17.60;47.60;;;;;;4966806;28;20210;-85
2022/12/28 01:11:09;;;;;;;0.68;0.47;;;17.60;47.60;;;;;;4970229;28;20168;-85
2022/12/28 01:13:42;;;;;;;0.85;0.40;;;17.60;47.70;;;;;;4954978;28;20498;-85
2022/12/28 01:16:13;;;;;;;0.60;0.35;;;17.60;47.80;;;;;;4970598;28;20163;-84
2022/12/28 01:18:47;;;;;;;2.08;0.50;;;17.60;47.70;;;;;;4954949;28;20293;-85
2022/12/28 01:21:16;;;;;;;0.60;0.30;;;17.60;47.80;;;;;;4970442;28;20164;-85
2022/12/28 01:23:52;;;;;;;0.57;0.50;;;17.60;47.80;;;;;;4970664;28;20152;-85
2022/12/28 01:26:33;;;;;;;0.70;0.45;;;17.60;47.80;;;;;;4986157;28;20160;-85
2022/12/28 01:28:59;;;;;;;0.45;0.40;;;17.60;47.80;;;;;;4970748;28;20623;-85
2022/12/28 01:31:31;;;;;;;1.00;0.47;;;17.60;47.80;;;;;;4970166;28;20163;-85
2022/12/28 01:33:57;;;;;;;1.75;0.68;;;17.60;47.80;;;;;;4970406;28;20166;-85
2022/12/28 01:36:24;;;;;;;0.98;0.30;;;17.50;47.80;;;;;;4969504;28;20239;-86
2022/12/28 01:38:55;;;;;;;0.70;0.50;;;17.50;47.80;;;;;;4953996;28;20200;-85
2022/12/28 01:41:26;;;;;;;0.40;0.35;;;17.50;47.80;;;;;;4954267;28;20160;-85
2022/12/28 01:44:20;;;;;;;1.05;0.32;;;17.50;47.90;;;;;;4970298;28;20164;-84
2022/12/28 01:46:50;;;;;;;1.92;0.40;;;17.50;47.90;;;;;;4988983;28;20156;-85
2022/12/28 01:49:28;;;;;;;1.75;0.50;;;17.50;47.90;;;;;;4952586;28;20168;-85
2022/12/28 01:52:05;;;;;;;1.48;0.40;;;17.50;47.80;;;;;;4969050;28;20207;-85
2022/12/28 01:54:44;;;;;;;1.02;0.47;;;17.50;47.90;;;;;;4970084;28;20175;-86
2022/12/28 01:57:13;;;;;;;0.75;0.40;;;17.50;47.90;;;;;;4969460;28;20175;-84
2022/12/28 01:59:41;;;;;;;1.25;0.50;;;17.50;47.80;;;;;;4954019;28;20215;-84
2022/12/28 02:02:08;;;;;;;0.55;0.30;;;17.50;47.90;;;;;;4954965;28;20159;-85
2022/12/28 02:04:35;;;;;;;0.32;0.25;;;17.50;47.80;;;;;;4954766;28;20206;-85
2022/12/28 02:07:01;;;;;;;0.75;0.40;;;17.50;47.70;;;;;;4954663;28;20223;-85
2022/12/28 02:09:30;;;;;;;0.60;0.32;;;17.50;47.80;;;;;;4954940;28;20172;-86
2022/12/28 02:11:57;;;;;;;2.05;0.55;;;17.60;47.70;;;;;;4970162;28;20491;-85
2022/12/28 02:14:23;;;;;;;1.60;0.50;;;17.50;47.70;;;;;;4970782;28;20157;-85
2022/12/28 02:16:53;;;;;;;1.20;0.50;;;17.50;47.70;;;;;;4954881;28;20199;-85
2022/12/28 02:19:20;;;;;;;0.73;0.40;;;17.50;47.70;;;;;;4970507;28;20203;-84
2022/12/28 02:22:12;;;;;;;1.02;0.30;;;17.50;47.80;;;;;;4970233;28;20149;-85
2022/12/28 02:24:57;;;;;;;1.15;0.40;;;17.50;47.80;;;;;;4969970;28;20176;-84
2022/12/28 02:27:42;;;;;;;1.05;0.40;;;17.40;47.80;;;;;;4970855;28;20168;-85
2022/12/28 02:30:12;;;;;;;0.60;0.40;;;17.50;47.80;;;;;;4972568;28;20167;-84
2022/12/28 02:33:02;;;;;;;0.75;0.47;;;17.50;47.80;;;;;;4971131;28;20172;-84
2022/12/28 02:35:58;;;;;;;0.30;0.30;;;17.50;47.80;;;;;;4989552;28;20179;-85
2022/12/28 02:38:39;;;;;;;0.57;0.40;;;17.50;47.80;;;;;;4970433;28;20279;-85
2022/12/28 02:41:12;;;;;;;0.38;0.38;;;17.50;47.90;;;;;;4971485;28;20160;-84
2022/12/28 02:43:39;;;;;;;0.60;0.40;;;17.40;47.80;;;;;;4955151;28;20176;-85
2022/12/28 02:51:54;;;;;;;0.63;0.45;;;17.40;47.90;;;;;;4974119;28;20175;-85
2022/12/28 02:58:12;;;;;;;0.55;0.32;;;17.40;48.00;;;;;;4987661;28;20164;-85
2022/12/28 03:01:02;;;;;;;1.50;0.40;;;17.40;47.90;;;;;;4987315;28;20178;-84
2022/12/28 03:03:38;;;;;;;1.33;0.80;;;17.50;48.00;;;;;;4989151;28;20166;-85
2022/12/28 03:09:17;;;;;;;0.73;0.40;;;17.40;48.10;;;;;;4969928;28;20172;-85
2022/12/28 03:11:50;;;;;;;1.10;0.57;;;17.40;48.00;;;;;;4957973;28;20172;-84
2022/12/28 03:14:21;;;;;;;0.85;0.32;;;17.40;48.00;;;;;;4970860;28;20559;-86
2022/12/28 03:33:22;;;;;;;0.63;0.47;;;17.40;47.90;;;;;;4971998;28;20167;-85
2022/12/28 03:36:01;;;;;;;0.90;0.47;;;17.40;48.10;;;;;;4969556;28;20156;-85
2022/12/28 03:38:30;;;;;;;0.60;0.40;;;17.30;48.20;;;;;;4955273;28;20167;-85
2022/12/28 03:41:11;;;;;;;0.65;0.47;;;17.40;48.30;;;;;;4954099;28;20160;-85
2022/12/28 03:43:45;;;;;;;1.20;0.47;;;17.30;48.20;;;;;;4954540;28;20172;-85
2022/12/28 03:46:28;;;;;;;0.75;0.40;;;17.40;48.20;;;;;;4970142;28;20163;-85
2022/12/28 03:48:56;;;;;;;0.95;0.50;;;17.30;48.20;;;;;;4955953;28;20174;-85
2022/12/28 03:51:23;;;;;;;0.38;0.22;;;17.30;48.20;;;;;;4969923;28;20156;-84
2022/12/28 03:53:51;;;;;;;0.43;0.30;;;17.30;48.20;;;;;;4969746;28;20247;-84
2022/12/28 03:56:22;;;;;;;0.73;0.45;;;17.20;48.20;;;;;;4969644;28;20531;-84
2022/12/28 03:58:48;;;;;;;0.60;0.35;;;17.30;48.20;;;;;;4970281;28;20192;-86
2022/12/28 04:01:16;;;;;;;0.85;0.50;;;17.30;48.20;;;;;;4970578;28;20163;-84
2022/12/28 04:03:46;;;;;;;0.65;0.50;;;17.30;48.20;;;;;;4969525;28;20167;-85
2022/12/28 04:06:14;;;;;;;0.63;0.30;;;17.30;48.20;;;;;;4970060;28;20219;-84
2022/12/28 04:08:42;;;;;;;1.05;0.60;;;17.30;48.30;;;;;;4954702;28;20171;-85
2022/12/28 04:11:15;;;;;;;0.80;0.43;;;17.30;48.30;;;;;;4970220;28;20160;-86
2022/12/28 04:13:49;;;;;;;1.75;0.40;;;17.20;48.20;;;;;;4970472;28;20627;-85
2022/12/28 04:16:16;;;;;;;1.05;0.38;;;17.20;48.20;;;;;;4971249;28;20172;-84
2022/12/28 04:18:42;;;;;;;0.57;0.55;;;17.30;48.30;;;;;;4955058;28;20287;-85
2022/12/28 04:21:09;;;;;;;0.57;0.40;;;17.30;48.40;;;;;;4956077;28;20172;-84
2022/12/28 04:23:34;;;;;;;0.63;0.55;;;17.20;48.20;;;;;;4955744;28;20231;-85
2022/12/28 04:26:07;;;;;;;1.27;0.40;;;17.30;48.30;;;;;;4955710;28;20171;-84
2022/12/28 04:28:34;;;;;;;0.50;0.40;;;17.30;48.40;;;;;;4971712;28;20191;-84
2022/12/28 04:31:09;;;;;;;0.82;0.40;;;17.30;48.50;;;;;;4956328;28;20530;-85
2022/12/28 04:33:40;;;;;;;0.35;0.30;;;17.20;48.30;;;;;;4971304;28;20186;-85
2022/12/28 04:36:12;;;;;;;1.00;0.50;;;17.30;48.30;;;;;;4972044;28;20164;-84
2022/12/28 04:38:40;;;;;;;0.55;0.30;;;17.20;48.40;;;;;;4956885;28;20211;-84
2022/12/28 04:41:07;;;;;;;0.80;0.60;;;17.20;48.40;;;;;;4972622;28;20153;-85
2022/12/28 04:43:32;;;;;;;1.08;0.55;;;17.20;48.40;;;;;;4957728;28;20180;-84
2022/12/28 04:46:00;;;;;;;0.63;0.30;;;17.20;48.40;;;;;;4960565;28;20531;-85
2022/12/28 04:48:26;;;;;;;0.68;0.45;;;17.20;48.40;;;;;;4960067;28;20183;-85
2022/12/28 04:50:55;;;;;;;0.47;0.28;;;17.10;48.40;;;;;;4959371;28;20257;-84
2022/12/28 04:53:22;;;;;;;1.02;0.50;;;17.20;48.50;;;;;;4975830;28;20168;-84
2022/12/28 04:55:48;;;;;;;0.93;0.50;;;17.20;48.40;;;;;;4959940;28;20172;-84
2022/12/28 04:58:14;;;;;;;0.50;0.50;;;17.20;48.40;;;;;;4960712;28;20175;-84
2022/12/28 05:00:43;;;;;;;0.40;0.38;;;17.20;48.50;;;;;;4960651;28;20175;-85
2022/12/28 05:03:12;;;;;;;0.40;0.30;;;17.20;48.50;;;;;;4975068;28;20153;-85
2022/12/28 05:05:37;;;;;;;0.63;0.40;;;17.30;48.60;;;;;;4959317;28;20179;-85
2022/12/28 05:08:11;;;;;;;0.57;0.57;;;17.20;48.50;;;;;;4976205;28;20152;-85
2022/12/28 05:10:39;;;;;;;0.70;0.38;;;17.20;48.60;;;;;;4978546;28;20167;-84
2022/12/28 05:13:05;;;;;;;0.85;0.40;;;17.20;48.60;;;;;;4979726;28;20662;-85
2022/12/28 05:15:31;;;;;;;0.63;0.35;;;17.20;48.60;;;;;;4964259;28;20163;-85
2022/12/28 05:18:03;;;;;;;2.15;0.40;;;17.20;48.50;;;;;;4979568;28;20251;-85
2022/12/28 05:20:35;;;;;;;1.38;0.50;;;17.20;48.40;;;;;;5008769;28;20226;-85
2022/12/28 05:23:11;;;;;;;0.68;0.32;;;17.20;48.50;;;;;;4992402;28;20212;-84
2022/12/28 05:25:52;;;;;;;0.45;0.30;;;17.20;48.50;;;;;;4991878;28;20167;-86
2022/12/28 05:28:18;;;;;;;0.50;0.40;;;17.20;48.60;;;;;;4976383;28;20164;-85
2022/12/28 05:30:46;;;;;;;1.00;0.40;;;17.20;48.50;;;;;;4959968;28;20172;-84
2022/12/28 05:33:18;;;;;;;0.57;0.40;;;17.20;48.60;;;;;;4960351;28;20171;-85
2022/12/28 05:35:46;;;;;;;0.95;0.52;;;17.20;48.50;;;;;;4960794;28;20235;-84
2022/12/28 05:38:13;;;;;;;0.88;0.47;;;17.20;48.50;;;;;;4960172;28;20181;-84
2022/12/28 05:40:39;;;;;;;0.32;0.30;;;17.20;48.50;;;;;;4959986;28;20211;-84
2022/12/28 05:43:09;;;;;;;1.10;0.40;;;17.10;48.50;;;;;;4960050;28;20635;-85
2022/12/28 05:45:40;;;;;;;0.77;0.43;;;17.20;48.50;;;;;;4976971;28;20164;-85
2022/12/28 05:48:07;;;;;;;0.90;0.50;;;17.10;48.50;;;;;;4992589;28;20152;-84
2022/12/28 05:50:33;;;;;;;0.32;0.30;;;17.20;48.60;;;;;;4960976;28;20180;-84
2022/12/28 05:52:59;;;;;;;1.27;0.35;;;17.10;48.60;;;;;;4960374;28;20163;-84
2022/12/28 05:55:26;;;;;;;0.60;0.40;;;17.20;48.70;;;;;;4975786;28;20211;-84
2022/12/28 05:57:54;;;;;;;0.32;0.30;;;17.10;48.60;;;;;;4960977;28;20172;-84
2022/12/28 06:00:20;;;;;;;0.30;0.30;;;17.10;48.60;;;;;;4960863;28;20630;-84
2022/12/28 06:02:46;;;;;;;0.90;0.60;;;17.10;48.70;;;;;;4977136;28;20167;-84
2022/12/28 06:05:26;;;;;;;1.05;0.40;;;17.10;48.60;;;;;;4960931;28;20176;-84
2022/12/28 06:07:54;;;;;;;0.55;0.40;;;17.10;48.70;;;;;;4989580;28;20219;-84
2022/12/28 06:10:25;;;;;;;0.45;0.30;;;17.10;48.60;;;;;;4958230;28;20168;-84
2022/12/28 06:12:52;;;;;;;1.10;0.43;;;17.10;48.60;;;;;;4957281;28;20604;-84
2022/12/28 06:15:18;;;;;;;1.58;0.63;;;17.10;48.70;;;;;;4941582;28;20208;-84
2022/12/28 06:17:46;;;;;;;1.17;0.50;;;17.10;48.60;;;;;;4941746;28;20179;-85
2022/12/28 06:20:13;;;;;;;0.40;0.38;;;17.10;48.50;;;;;;4957604;28;20204;-85
2022/12/28 06:22:44;;;;;;;0.77;0.40;;;17.10;48.70;;;;;;4941553;28;20231;-84
2022/12/28 06:25:10;;;;;;;1.98;0.50;;;17.10;48.70;;;;;;4956456;28;20615;-84
2022/12/28 06:27:42;;;;;;;0.68;0.32;;;17.10;48.80;;;;;;4941540;28;20171;-84
2022/12/28 06:30:11;;;;;;;0.73;0.40;;;17.10;48.60;;;;;;4957633;28;20297;-84
2022/12/28 06:32:40;;;;;;;0.82;0.43;;;17.10;48.70;;;;;;4942456;28;20176;-85
2022/12/28 06:35:07;;;;;;;0.50;0.32;;;17.10;48.70;;;;;;4941933;28;20200;-84
2022/12/28 06:37:34;;;;;;;0.65;0.40;;;17.10;48.70;;;;;;4942350;28;20161;-84
2022/12/28 06:40:05;;;;;;;0.57;0.47;;;17.10;48.70;;;;;;4939925;28;20196;-84
2022/12/28 06:42:31;;;;;;;0.90;0.40;;;17.10;48.70;;;;;;4956047;28;20274;-84
2022/12/28 06:45:06;;;;;;;0.82;0.40;;;17.10;48.70;;;;;;4939713;28;20225;-84
2022/12/28 06:47:35;;;;;;;0.70;0.50;;;17.10;48.80;;;;;;4939939;28;20175;-83
2022/12/28 06:50:03;;;;;;;0.60;0.50;;;17.10;48.60;;;;;;4941374;28;20220;-84
2022/12/28 06:52:28;;;;;;;1.42;0.50;;;17.00;48.50;;;;;;4954843;28;20536;-85
2022/12/28 06:54:57;;;;;;;0.70;0.50;;;17.10;48.60;;;;;;4921573;29;20173;-84
2022/12/28 06:57:25;;;;;;;0.30;0.30;;;17.10;48.60;;;;;;4938067;29;20548;-84
2022/12/28 06:59:53;;;;;;;1.38;0.40;;;17.10;48.50;;;;;;4916450;29;20220;-84
2022/12/28 07:02:26;;;;;;;0.43;0.40;;;17.10;48.50;;;;;;4930469;29;20708;-84
2022/12/28 07:04:52;;;;;;;0.95;0.50;;;17.10;48.50;;;;;;4960821;29;20170;-85
2022/12/28 07:07:18;;;;;;;0.60;0.43;;;17.10;48.50;;;;;;4946763;28;20322;-84
2022/12/28 07:09:47;;;;;;;0.50;0.40;;;17.10;48.50;;;;;;4954132;28;20173;-84
2022/12/28 07:12:13;;;;;;;0.45;0.30;;;17.10;48.50;;;;;;4953988;28;20169;-84
2022/12/28 07:14:41;;;;;;;0.73;0.50;;;17.10;48.60;;;;;;4954308;28;20233;-84
2022/12/28 07:17:08;;;;;;;0.90;0.50;;;17.10;48.70;;;;;;4936855;28;20219;-85
2022/12/28 07:19:33;;;;;;;0.85;0.35;;;17.10;48.70;;;;;;4948951;28;20204;-84
2022/12/28 07:22:24;;;;;;;0.60;0.30;;;17.10;48.70;;;;;;4950040;28;20522;-84
2022/12/28 07:24:54;;;;;;;0.40;0.30;;;17.10;48.50;;;;;;4999806;28;20176;-85
2022/12/28 07:27:20;;;;;;;1.05;0.50;;;17.10;48.50;;;;;;4965057;28;20172;-85
2022/12/28 07:29:47;;;;;;;0.80;0.40;;;17.10;48.40;;;;;;4966016;28;20227;-84
2022/12/28 07:32:14;;;;;;;0.85;0.60;;;17.20;48.10;;;;;;4949997;28;20171;-84
2022/12/28 07:34:39;;;;;;;1.20;0.55;;;17.30;47.80;;;;;;4951405;28;20172;-85
2022/12/28 07:37:08;;;;;;;0.70;0.57;;;17.30;47.70;;;;;;4969184;28;20172;-85
2022/12/28 07:39:40;;;;;;;0.65;0.38;;;17.40;47.50;;;;;;4952035;28;20206;-84
2022/12/28 07:42:09;;;;;;;0.50;0.40;;;17.40;47.20;;;;;;4968586;28;20244;-84
2022/12/28 07:44:40;;;;;;;0.35;0.32;;;17.40;47.20;;;;;;4952955;28;20168;-85
2022/12/28 07:47:11;;;;;;;0.50;0.43;;;17.50;47.20;;;;;;4966740;28;20163;-85
2022/12/28 07:49:39;;;;;;;0.45;0.40;;;17.50;47.20;;;;;;4982983;28;20157;-85
2022/12/28 07:52:08;;;;;;;0.73;0.40;;;17.50;47.10;;;;;;4953163;28;20627;-84
2022/12/28 07:54:34;;;;;;;0.45;0.35;;;17.50;47.00;;;;;;4969669;28;20252;-84
2022/12/28 07:57:02;;;;;;;0.50;0.30;;;17.60;46.90;;;;;;4952778;28;20192;-85
2022/12/28 07:59:29;;;;;;;0.65;0.50;;;17.60;46.90;;;;;;4952570;28;20196;-84
2022/12/28 08:01:57;;;;;;;0.35;0.35;;;17.60;46.90;;;;;;4948721;28;20179;-84
2022/12/28 08:04:23;;;;;;;2.00;0.50;;;17.60;46.90;;;;;;4981203;28;20161;-85
2022/12/28 08:06:49;;;;;;;1.92;0.50;;;17.60;46.90;;;;;;4982763;28;20220;-85
2022/12/28 08:09:16;;;;;;;1.05;0.50;;;17.60;46.90;;;;;;4965057;28;20254;-86
2022/12/28 08:11:43;;;;;;;0.55;0.43;;;17.60;46.40;;;;;;4948350;28;20168;-84
2022/12/28 08:14:09;;;;;;;0.57;0.50;;;17.60;46.50;;;;;;4964177;28;20156;-84
2022/12/28 08:16:41;;;;;;;0.60;0.30;;;17.70;46.40;;;;;;4964132;28;20221;-84
2022/12/28 08:19:08;;;;;;;0.73;0.50;;;17.60;46.50;;;;;;4978848;28;20210;-85
2022/12/28 08:21:36;;;;;;;0.32;0.30;;;17.60;46.20;;;;;;4963651;28;20621;-84
2022/12/28 08:24:02;;;;;;;0.35;0.35;;;17.70;46.20;;;;;;4948609;28;20167;-85
2022/12/28 08:26:34;;;;;;;0.45;0.30;;;17.60;46.30;;;;;;4949605;28;20262;-86
2022/12/28 08:29:03;;;;;;;0.57;0.47;;;17.70;46.10;;;;;;4965111;28;20178;-85
2022/12/28 08:31:31;;;;;;;1.05;0.40;;;17.70;46.10;;;;;;4949113;28;20164;-85
2022/12/28 08:33:57;;;;;;;1.00;0.40;;;17.70;46.20;;;;;;4949028;28;20171;-84
2022/12/28 08:36:24;;;;;;;0.85;0.40;;;17.70;46.10;;;;;;4945833;28;20195;-84
2022/12/28 08:38:51;;;;;;;0.35;0.35;;;17.70;45.80;;;;;;4945707;28;20203;-85
2022/12/28 08:41:21;;;;;;;1.38;0.40;;;17.70;46.00;;;;;;4930207;28;20157;-85
2022/12/28 08:43:47;;;;;;;0.50;0.38;;;17.60;46.10;;;;;;4929752;28;20153;-85
2022/12/28 08:46:16;;;;;;;0.88;0.40;;;17.70;46.50;;;;;;4929681;28;20171;-85
2022/12/28 08:48:42;;;;;;;1.88;0.50;;;17.70;46.20;;;;;;4944412;28;20581;-84
2022/12/28 08:51:16;;;;;;;0.45;0.30;;;17.70;45.80;;;;;;4961241;28;20172;-85
2022/12/28 08:53:49;;;;;;;0.50;0.40;;;17.70;46.00;;;;;;4956183;28;20169;-85
2022/12/28 08:56:18;;;;;;;0.52;0.35;;;17.70;45.60;;;;;;4965244;28;20160;-83
2022/12/28 08:58:43;;;;;;;0.70;0.40;;;17.70;45.80;;;;;;4983631;28;20196;-85
2022/12/28 09:01:19;;;;;;;0.43;0.40;;;17.70;46.10;;;;;;4967845;28;20513;-84
2022/12/28 09:03:48;;;;;;;0.43;0.35;;;17.80;45.90;;;;;;4966422;28;20180;-83
2022/12/28 09:06:16;;;;;;;0.70;0.40;;;17.70;45.70;;;;;;4954564;28;20235;-82
2022/12/28 09:08:51;;;;;;;1.58;0.52;;;17.70;45.80;;;;;;4955224;28;20175;-84
2022/12/28 09:11:18;;;;;;;0.93;0.40;;;17.70;46.00;;;;;;4970828;28;20186;-83
2022/12/28 09:13:45;;;;;;;1.40;0.40;;;17.70;46.00;;;;;;4954971;28;20282;-82
2022/12/28 09:16:13;;;;;;;0.43;0.40;;;17.70;46.00;;;;;;4969996;28;20570;-84
2022/12/28 09:18:40;;;;;;;0.57;0.50;;;17.70;46.30;;;;;;4951024;28;20176;-83
2022/12/28 09:21:12;;;;;;;0.40;0.30;;;17.70;45.80;;;;;;4965124;28;20196;-83
2022/12/28 09:23:37;;;;;;;0.40;0.30;;;17.70;46.30;;;;;;4949726;28;20176;-83
2022/12/28 09:26:09;;;;;;;0.47;0.30;;;17.70;47.20;;;;;;4968213;28;20157;-83
2022/12/28 09:28:36;;;;;;;2.17;0.32;;;17.70;45.90;;;;;;4954791;28;20165;-83
2022/12/28 09:31:04;;;;;;;0.50;0.40;;;17.70;46.30;;;;;;4955131;28;20634;-82
2022/12/28 09:36:07;;;;;;;4.78;0.60;;;17.70;46.30;;;;;;4976103;28;20211;-84
2022/12/28 09:38:34;;;;;;;1.00;0.45;;;17.70;46.00;;;;;;4955766;28;20239;-84
2022/12/28 09:41:00;;;;;;;2.35;0.47;;;17.70;46.20;;;;;;4973744;28;20188;-83
2022/12/28 09:43:28;;;;;;;1.60;0.40;;;17.70;46.40;;;;;;4973088;28;20160;-83
2022/12/28 09:45:54;;;;;;;3.80;0.50;;;17.70;46.00;;;;;;4969175;28;20612;-82
2022/12/28 09:48:29;;;;;;;3.47;0.50;;;17.70;46.00;;;;;;4953546;28;20168;-83
2022/12/28 09:50:58;;;;;;;0.93;0.52;;;17.80;46.30;;;;;;4953533;28;20591;-84
2022/12/28 09:53:29;;;;;;;1.75;0.57;;;17.70;45.80;;;;;;4952629;28;20177;-83
2022/12/28 09:56:21;;;;;;;1.00;0.40;;;17.80;45.90;;;;;;4969266;28;20161;-83
2022/12/28 09:58:48;;;;;;;1.23;0.60;;;17.70;46.20;;;;;;4954983;28;20197;-83
2022/12/28 10:01:14;;;;;;;2.75;0.57;;;17.70;45.80;;;;;;4968959;28;20161;-83
2022/12/28 10:03:41;;;;;;;2.13;0.47;;;17.80;45.60;;;;;;4952223;28;20165;-83
2022/12/28 10:06:16;;;;;;;8.50;0.60;;;17.80;45.90;;;;;;4953381;28;20255;-83
2022/12/28 10:08:46;;;;;;;8.02;0.90;;;17.70;46.30;;;;;;4949172;29;20192;-85
2022/12/28 10:11:16;;;;;;;7.78;0.85;;;17.80;46.20;;;;;;4950522;29;20184;-82
2022/12/28 10:13:43;;;;;;;6.45;0.90;;;17.80;46.20;;;;;;4916033;29;20212;-83
2022/12/28 10:16:17;;;;;;;6.45;0.88;;;17.80;45.80;;;;;;4933355;29;20169;-82
2022/12/28 10:18:43;;;;;;;8.38;0.60;;;17.80;45.80;;;;;;4932792;29;20221;-83
2022/12/28 10:21:09;;;;;;;7.10;0.80;;;17.80;45.80;;;;;;4917951;29;20174;-83
2022/12/28 10:23:35;;;;;;;24.02;1.88;;;17.80;45.70;;;;;;4933774;29;20187;-83
2022/12/28 10:26:02;;;;;;;13.77;1.80;;;17.80;46.10;;;;;;4935489;29;20162;-84
2022/12/28 10:28:40;;;;;;;17.10;1.30;;;17.80;45.80;;;;;;4919268;29;20289;-83
2022/12/28 10:31:10;;;;;;;15.77;1.58;;;17.90;45.70;;;;;;4934144;29;20184;-82
2022/12/28 10:33:38;;;;;;;17.65;1.20;;;17.90;45.60;;;;;;4951835;28;20648;-84
2022/12/28 10:36:40;;;;;;;9.13;0.80;;;17.90;45.70;;;;;;4951340;28;20208;-83
2022/12/28 10:39:08;;;;;;;11.20;1.17;;;17.90;45.30;;;;;;4889206;29;20223;-83
2022/12/28 10:41:39;;;;;;;14.57;1.48;;;17.90;45.80;;;;;;4875512;29;20292;-83
2022/12/28 10:44:25;;;;;;;12.15;1.33;;;17.90;45.80;;;;;;4876469;29;20184;-83
2022/12/28 10:46:57;;;;;;;11.57;1.20;;;17.90;45.60;;;;;;4876643;29;20180;-84
2022/12/28 10:49:24;;;;;;;13.68;1.27;;;17.90;45.70;;;;;;4877546;29;20180;-83
2022/12/28 10:52:16;;;;;;;14.52;1.05;;;17.90;45.80;;;;;;4878388;29;20175;-83
2022/12/28 10:54:52;;;;;;;8.20;1.05;;;17.90;45.60;;;;;;4845246;29;20236;-83
2022/12/28 10:57:19;;;;;;;11.90;0.98;;;17.90;45.80;;;;;;4825204;29;20202;-83
2022/12/28 10:59:48;;;;;;;17.38;1.08;;;17.90;45.60;;;;;;4790386;29;20258;-84
2022/12/28 11:02:22;;;;;;;16.45;1.17;;;17.90;45.60;;;;;;4808387;29;20201;-84
2022/12/28 11:04:54;;;;;;;9.10;0.90;;;17.90;45.90;;;;;;4824342;29;20170;-84
2022/12/28 11:08:06;;;;;;;13.77;1.67;;;17.90;46.10;;;;;;4794293;29;20218;-84
2022/12/28 11:10:44;;;;;;;13.65;1.65;;;17.90;45.80;;;;;;4818208;29;20181;-84
2022/12/28 11:13:18;;;;;;;12.85;1.45;;;17.90;46.60;;;;;;4839304;29;20279;-83
2022/12/28 11:15:45;;;;;;;11.70;1.52;;;17.90;45.90;;;;;;4811617;29;20192;-83
2022/12/28 11:18:14;;;;;;;20.80;1.67;;;17.90;46.00;;;;;;4810213;29;20193;-83
2022/12/28 11:20:46;;;;;;;14.77;1.27;;;17.90;45.80;;;;;;4820491;29;20225;-83
2022/12/28 11:23:17;;;;;;;23.08;1.67;;;17.90;46.00;;;;;;4827012;29;20190;-82
2022/12/28 11:25:44;;;;;;;24.23;1.98;;;17.90;46.10;;;;;;4826017;29;20170;-83
2022/12/28 11:28:17;;;;;;;14.35;1.67;;;17.90;45.90;;;;;;4843708;29;20696;-82
2022/12/28 11:30:44;;;;;;;18.92;2.20;;;17.90;45.60;;;;;;4870543;29;20195;-83
2022/12/28 11:33:24;;;;;;;21.90;2.10;;;17.90;45.90;;;;;;4905042;29;20687;-83
2022/12/28 11:35:52;;;;;;;20.10;1.73;;;17.90;45.70;;;;;;4917463;29;20162;-82
2022/12/28 11:38:39;;;;;;;30.63;2.03;;;18.00;45.90;;;;;;4908826;29;20174;-84
2022/12/28 11:41:11;;;;;;;20.45;1.88;;;17.80;46.20;;;;;;4893403;29;20205;-83
2022/12/28 11:43:39;;;;;;;21.10;1.35;;;17.90;46.40;;;;;;4894384;29;20174;-84
2022/12/28 11:46:07;;;;;;;14.13;1.55;;;17.90;45.80;;;;;;4894109;29;20177;-84
2022/12/28 11:48:58;;;;;;;12.80;1.75;;;17.90;46.40;;;;;;4966768;28;20200;-84
2022/12/28 11:52:19;;;;;;;19.17;1.35;;;17.90;45.50;;;;;;4962178;28;20179;-84
2022/12/28 11:54:59;;;;;;;16.55;1.42;;;18.00;45.90;;;;;;4971419;28;20276;-84
2022/12/28 11:57:40;;;;;;;11.90;1.52;;;18.00;45.80;;;;;;4982419;28;20179;-83
2022/12/28 12:00:19;;;;;;;6.22;0.93;;;17.90;45.70;;;;;;4986701;28;20192;-84
2022/12/28 12:02:59;;;;;;;6.30;1.20;;;18.00;45.80;;;;;;4991660;28;20168;-84
2022/12/28 12:05:52;;;;;;;11.10;1.23;;;17.90;45.80;;;;;;4973405;28;20171;-85
2022/12/28 12:08:38;;;;;;;7.82;1.08;;;18.00;46.00;;;;;;4959220;28;20268;-86
2022/12/28 12:11:38;;;;;;;;;;;;;;;;;;;;;
2022/12/28 12:14:05;;;;;;;7.90;1.00;;;18.00;45.90;;;;;;4961579;28;20286;-86
2022/12/28 12:16:46;;;;;;;6.07;0.82;;;18.00;46.20;;;;;;4977327;28;20228;-84
2022/12/28 12:19:23;;;;;;;5.75;0.80;;;17.90;45.70;;;;;;4954971;28;20237;-85
2022/12/28 12:22:06;;;;;;;12.25;1.45;;;17.90;45.80;;;;;;4931248;29;20257;-84
2022/12/28 12:24:59;;;;;;;12.00;1.08;;;17.90;45.90;;;;;;4951324;29;20177;-84
2022/12/28 12:27:39;;;;;;;6.53;0.93;;;18.00;45.70;;;;;;4886564;29;20194;-84
2022/12/28 12:30:57;;;;;;;10.40;1.17;;;17.90;46.20;;;;;;4911280;29;20183;-84
2022/12/28 12:33:25;;;;;;;8.90;0.70;;;17.90;46.10;;;;;;4886000;29;20246;-84
2022/12/28 12:36:36;;;;;;;3.97;0.90;;;17.90;46.00;;;;;;4901583;29;20179;-83
2022/12/28 12:39:22;;;;;;;9.00;1.10;;;18.00;46.00;;;;;;4810421;29;20369;-84
2022/12/28 12:42:13;;;;;;;6.75;0.93;;;18.00;46.00;;;;;;4829177;29;20194;-85
2022/12/28 12:44:59;;;;;;;4.80;0.70;;;18.00;45.60;;;;;;4898285;29;20175;-84
2022/12/28 12:47:44;;;;;;;7.85;0.88;;;18.00;45.50;;;;;;4897269;29;20668;-84
2022/12/28 12:50:23;;;;;;;3.60;0.85;;;18.00;45.70;;;;;;4899336;29;20204;-85
2022/12/28 12:53:03;;;;;;;4.03;0.90;;;18.00;45.70;;;;;;4900840;29;20187;-86
2022/12/28 12:55:57;;;;;;;1.60;0.70;;;18.00;45.90;;;;;;4887611;29;20238;-84
2022/12/28 12:58:39;;;;;;;4.05;0.80;;;17.90;46.00;;;;;;4885019;29;20678;-84
2022/12/28 13:01:29;;;;;;;3.20;0.70;;;18.00;46.00;;;;;;4888185;29;20183;-82
2022/12/28 13:04:04;;;;;;;6.35;0.95;;;18.00;46.10;;;;;;4965125;28;20188;-83
2022/12/28 13:06:29;;;;;;;4.35;0.98;;;18.00;45.40;;;;;;4961586;28;20232;-84
2022/12/28 13:08:57;;;;;;;2.88;0.60;;;18.00;45.60;;;;;;4930891;28;20184;-84
2022/12/28 13:11:23;;;;;;;3.10;0.60;;;18.00;46.00;;;;;;4931020;28;20181;-83
2022/12/28 13:13:50;;;;;;;3.33;0.80;;;18.00;46.00;;;;;;4929768;28;20649;-84
2022/12/28 13:16:21;;;;;;;4.90;0.60;;;18.00;45.70;;;;;;4946799;28;20153;-84
2022/12/28 13:18:56;;;;;;;1.85;0.60;;;18.00;45.80;;;;;;4963369;28;20164;-84
2022/12/28 13:21:28;;;;;;;2.90;0.70;;;18.00;45.80;;;;;;4964131;28;20195;-84
2022/12/28 13:23:55;;;;;;;4.82;0.70;;;18.00;45.80;;;;;;4983844;28;20160;-84
2022/12/28 13:26:27;;;;;;;3.72;0.90;;;18.00;46.40;;;;;;4950649;28;20175;-84
2022/12/28 13:28:58;;;;;;;2.58;0.80;;;17.90;45.80;;;;;;4966141;28;20169;-84
2022/12/28 13:31:32;;;;;;;2.20;0.80;;;18.00;45.90;;;;;;4965782;28;20153;-83
2022/12/28 13:34:00;;;;;;;4.88;0.85;;;18.00;45.70;;;;;;4951653;28;20156;-85
2022/12/28 13:36:26;;;;;;;3.75;0.70;;;18.00;45.70;;;;;;4968434;28;20163;-84
2022/12/28 13:39:11;;;;;;;2.22;0.60;;;18.00;45.70;;;;;;4950196;28;20211;-83
2022/12/28 13:41:36;;;;;;;3.40;0.65;;;18.00;46.30;;;;;;4968702;28;20163;-85